createdAt,value
2023-05-05T00:02:50.367Z,8.51
2023-05-05T00:05:55.345Z,8.49
2023-05-05T00:08:58.356Z,8.34
2023-05-05T00:12:01.995Z,8.30
2023-05-05T00:15:04.935Z,8.22
2023-05-05T00:18:07.944Z,8.24
2023-05-05T00:21:10.522Z,8.48
2023-05-05T00:24:13.784Z,8.43
2023-05-05T00:27:16.220Z,8.39
2023-05-05T00:30:19.214Z,8.24
2023-05-05T00:33:21.986Z,8.32
2023-05-05T00:36:24.840Z,8.27
2023-05-05T00:39:27.452Z,8.29
2023-05-05T00:42:41.565Z,8.53
2023-05-05T00:45:47.557Z,8.27
2023-05-05T00:48:51.171Z,8.07
2023-05-05T00:51:53.722Z,8.08
2023-05-05T00:54:56.827Z,8.06
2023-05-05T00:58:00.567Z,7.99
2023-05-05T01:01:03.762Z,7.98
2023-05-05T01:04:07.241Z,8.06
2023-05-05T01:07:13.033Z,8.03
2023-05-05T01:10:20.849Z,8.11
2023-05-05T01:13:42.803Z,8.18
2023-05-05T01:17:05.462Z,8.33
2023-05-05T01:20:21.603Z,8.33
2023-05-05T01:23:49.926Z,8.21
2023-05-05T01:27:08.548Z,8.07
2023-05-05T01:30:29.687Z,7.97
2023-05-05T01:33:36.677Z,7.91
2023-05-05T01:36:42.966Z,7.86
2023-05-05T01:39:49.883Z,7.83
2023-05-05T01:42:54.516Z,7.70
2023-05-05T01:45:57.804Z,7.63
2023-05-05T01:49:01.001Z,7.60
2023-05-05T01:52:05.170Z,7.57
2023-05-05T01:55:08.544Z,7.40
2023-05-05T01:58:12.288Z,7.38
2023-05-05T02:01:15.519Z,7.29
2023-05-05T02:04:22.734Z,7.24
2023-05-05T02:07:26.342Z,7.22
2023-05-05T02:10:30.061Z,7.19
2023-05-05T02:13:32.936Z,7.15
2023-05-05T02:16:37.369Z,7.25
2023-05-05T02:19:43.249Z,7.21
2023-05-05T02:22:46.156Z,7.27
2023-05-05T02:25:55.786Z,7.26
2023-05-05T02:29:12.488Z,7.15
2023-05-05T02:32:19.429Z,7.18
2023-05-05T02:35:24.523Z,6.97
2023-05-05T02:38:29.371Z,7.14
2023-05-05T02:41:34.847Z,7.16
2023-05-05T02:44:42.403Z,7.16
2023-05-05T02:47:45.405Z,7.11
2023-05-05T02:50:48.546Z,7.05
2023-05-05T02:53:52.625Z,7.01
2023-05-05T02:56:57.472Z,6.98
2023-05-05T03:00:23.240Z,6.97
2023-05-05T03:03:39.813Z,7.05
2023-05-05T03:06:48.036Z,7.21
2023-05-05T03:10:00.344Z,7.21
2023-05-05T03:13:03.285Z,7.27
2023-05-05T03:16:07.524Z,7.23
2023-05-05T03:19:12.260Z,7.27
2023-05-05T03:22:15.827Z,7.21
2023-05-05T03:25:18.954Z,7.16
2023-05-05T03:28:22.438Z,7.07
2023-05-05T03:31:25.583Z,7.00
2023-05-05T03:34:28.957Z,7.01
2023-05-05T03:37:32.245Z,7.04
2023-05-05T03:40:43.720Z,7.05
2023-05-05T03:43:48.413Z,7.09
2023-05-05T03:46:51.378Z,7.18
2023-05-05T03:49:54.531Z,7.32
2023-05-05T03:52:57.454Z,7.40
2023-05-05T03:56:00.204Z,7.53
2023-05-05T03:59:03.661Z,7.64
2023-05-05T04:02:06.208Z,7.71
2023-05-05T04:05:09.414Z,7.78
2023-05-05T04:08:12.046Z,7.85
2023-05-05T04:11:14.865Z,7.88
2023-05-05T04:14:17.776Z,7.96
2023-05-05T04:17:20.641Z,8.02
2023-05-05T04:20:24.227Z,7.96
2023-05-05T04:23:27.055Z,7.96
2023-05-05T04:26:29.933Z,8.11
2023-05-05T04:29:32.902Z,8.24
2023-05-05T04:32:36.177Z,8.44
2023-05-05T04:35:39.729Z,8.73
2023-05-05T04:38:42.920Z,8.95
2023-05-05T04:41:45.774Z,9.07
2023-05-05T04:44:48.405Z,9.17
2023-05-05T04:47:52.082Z,9.27
2023-05-05T04:50:54.933Z,9.37
2023-05-05T04:53:58.384Z,9.48
2023-05-05T04:57:00.849Z,9.54
2023-05-05T05:00:05.484Z,9.59
2023-05-05T05:03:08.296Z,9.68
2023-05-05T05:06:11.170Z,9.76
2023-05-05T05:09:13.824Z,9.79
2023-05-05T05:12:16.746Z,10.02
2023-05-05T05:15:19.300Z,10.18
2023-05-05T05:18:22.627Z,10.70
2023-05-05T05:21:26.081Z,11.17
2023-05-05T05:24:30.042Z,11.35
2023-05-05T05:27:32.756Z,11.69
2023-05-05T05:30:35.789Z,11.51
2023-05-05T05:33:39.814Z,11.36
2023-05-05T05:36:43.130Z,11.24
2023-05-05T05:39:52.114Z,11.18
2023-05-05T05:42:55.404Z,11.28
2023-05-05T05:45:59.313Z,11.38
2023-05-05T05:49:02.513Z,11.49
2023-05-05T05:52:05.993Z,11.69
2023-05-05T05:55:09.466Z,11.60
2023-05-05T05:58:12.663Z,11.75
2023-05-05T06:01:16.054Z,11.93
2023-05-05T06:04:19.451Z,11.89
2023-05-05T06:07:22.172Z,12.10
2023-05-05T06:10:28.214Z,12.07
2023-05-05T06:13:32.695Z,12.19
2023-05-05T06:16:35.910Z,12.27
2023-05-05T06:19:40.973Z,12.32
2023-05-05T06:22:44.314Z,12.48
2023-05-05T06:25:47.655Z,12.60
2023-05-05T06:28:50.481Z,12.77
2023-05-05T06:31:53.039Z,12.90
2023-05-05T06:34:56.065Z,12.98
2023-05-05T06:37:58.596Z,13.08
2023-05-05T06:41:01.800Z,13.39
2023-05-05T06:44:04.507Z,13.41
2023-05-05T06:47:07.296Z,13.46
2023-05-05T06:50:10.212Z,13.61
2023-05-05T06:53:13.383Z,13.69
2023-05-05T06:56:15.935Z,13.86
2023-05-05T06:59:18.652Z,13.78
2023-05-05T07:02:21.241Z,14.20
2023-05-05T07:05:24.092Z,14.42
2023-05-05T07:08:26.728Z,14.69
2023-05-05T07:11:30.103Z,14.80
2023-05-05T07:14:32.871Z,14.97
2023-05-05T07:17:35.805Z,15.48
2023-05-05T07:20:38.318Z,16.00
2023-05-05T07:23:41.132Z,16.91
2023-05-05T07:26:44.032Z,18.20
2023-05-05T07:29:48.650Z,18.67
2023-05-05T07:32:51.516Z,19.59
2023-05-05T07:35:54.424Z,20.54
2023-05-05T07:38:56.926Z,20.80
2023-05-05T07:42:01.500Z,22.13
2023-05-05T07:45:04.938Z,22.18
2023-05-05T07:48:07.828Z,22.63
2023-05-05T07:51:10.995Z,23.11
2023-05-05T07:54:13.871Z,23.15
2023-05-05T07:57:17.379Z,22.43
2023-05-05T08:00:20.417Z,23.45
2023-05-05T08:03:24.836Z,23.64
2023-05-05T08:06:28.635Z,23.41
2023-05-05T08:09:31.412Z,23.23
2023-05-05T08:12:33.934Z,24.11
2023-05-05T08:15:36.948Z,24.51
2023-05-05T08:18:39.862Z,24.18
2023-05-05T08:21:42.657Z,24.83
2023-05-05T08:24:46.221Z,25.33
2023-05-05T08:27:49.116Z,24.13
2023-05-05T08:30:52.005Z,25.03
2023-05-05T08:33:55.120Z,25.89
2023-05-05T08:36:57.659Z,25.71
2023-05-05T08:40:00.549Z,25.89
2023-05-05T08:43:03.682Z,26.54
2023-05-05T08:46:06.678Z,25.70
2023-05-05T08:49:14.801Z,26.19
2023-05-05T08:52:24.224Z,25.76
2023-05-05T08:55:27.468Z,25.57
2023-05-05T08:58:30.550Z,26.36
2023-05-05T09:01:33.942Z,26.44
2023-05-05T09:04:37.052Z,26.60
2023-05-05T09:07:43.998Z,27.27
2023-05-05T09:10:49.061Z,27.33
2023-05-05T09:13:51.650Z,27.27
2023-05-05T09:16:54.556Z,27.32
2023-05-05T09:20:04.731Z,28.31
2023-05-05T09:23:11.687Z,27.58
2023-05-05T09:26:14.476Z,28.12
2023-05-05T09:29:21.491Z,27.31
2023-05-05T09:32:24.705Z,27.99
2023-05-05T09:35:27.876Z,28.54
2023-05-05T09:38:30.655Z,27.91
2023-05-05T09:41:37.850Z,27.56
2023-05-05T09:44:40.728Z,28.12
2023-05-05T09:47:43.993Z,27.53
2023-05-05T09:50:46.560Z,29.08
2023-05-05T09:53:49.306Z,28.49
2023-05-05T09:56:57.518Z,29.08
2023-05-05T10:00:01.807Z,27.95
2023-05-05T10:03:08.198Z,28.74
2023-05-05T10:06:11.327Z,28.37
2023-05-05T10:09:14.750Z,27.22
2023-05-05T10:12:17.994Z,29.49
2023-05-05T10:15:21.451Z,30.00
2023-05-05T10:18:26.082Z,29.86
2023-05-05T10:21:33.460Z,30.03
2023-05-05T10:24:43.460Z,29.28
2023-05-05T10:27:47.904Z,31.14
2023-05-05T10:30:53.061Z,29.78
2023-05-05T10:34:07.083Z,30.97
2023-05-05T10:37:11.546Z,30.34
2023-05-05T10:40:15.244Z,29.43
2023-05-05T10:43:18.124Z,31.29
2023-05-05T10:46:20.780Z,29.35
2023-05-05T10:49:48.791Z,29.70
2023-05-05T10:53:08.399Z,29.71
2023-05-05T10:56:16.983Z,30.02
2023-05-05T10:59:38.189Z,28.56
2023-05-05T11:02:42.019Z,28.44
2023-05-05T11:06:08.836Z,31.96
2023-05-05T11:09:27.921Z,30.89
2023-05-05T11:12:31.764Z,31.50
2023-05-05T11:15:37.704Z,32.00
2023-05-05T11:18:44.374Z,31.42
2023-05-05T11:22:00.423Z,32.04
2023-05-05T11:25:45.846Z,31.04
2023-05-05T11:28:59.668Z,30.76
2023-05-05T11:32:13.138Z,30.91
2023-05-05T11:35:16.374Z,28.37
2023-05-05T11:38:19.858Z,26.11
2023-05-05T11:41:33.584Z,29.49
2023-05-05T11:44:36.250Z,30.84
2023-05-05T11:47:39.114Z,30.56
2023-05-05T11:50:43.678Z,29.88
2023-05-05T11:53:48.472Z,29.04
2023-05-05T11:56:54.503Z,28.70
2023-05-05T12:00:03.682Z,27.53
2023-05-05T12:03:07.426Z,25.35
2023-05-05T12:06:10.694Z,26.69
2023-05-05T12:09:16.394Z,26.55
2023-05-05T12:12:19.760Z,25.90
2023-05-05T12:15:30.387Z,25.69
2023-05-05T12:18:33.157Z,26.60
2023-05-05T12:21:35.884Z,25.32
2023-05-05T12:24:39.473Z,25.91
2023-05-05T12:27:52.089Z,25.76
2023-05-05T12:30:58.958Z,25.22
2023-05-05T12:34:03.098Z,25.01
2023-05-05T12:37:06.048Z,25.09
2023-05-05T12:40:44.895Z,25.32
2023-05-05T12:43:48.153Z,24.81
2023-05-05T12:46:53.002Z,24.45
2023-05-05T12:49:56.439Z,23.98
2023-05-05T12:52:58.931Z,24.10
2023-05-05T12:56:01.815Z,23.85
2023-05-05T12:59:08.713Z,24.19
2023-05-05T13:02:11.696Z,24.34
2023-05-05T13:05:14.755Z,23.60
2023-05-05T13:08:18.598Z,23.55
2023-05-05T13:11:21.618Z,24.43
2023-05-05T13:14:24.348Z,24.65
2023-05-05T13:17:26.909Z,24.66
2023-05-05T13:20:30.070Z,24.54
2023-05-05T13:23:32.917Z,24.27
2023-05-05T13:26:36.786Z,24.24
2023-05-05T13:29:40.091Z,23.71
2023-05-05T13:32:43.146Z,23.62
2023-05-05T13:35:46.109Z,23.31
2023-05-05T13:38:49.387Z,22.92
2023-05-05T13:41:51.907Z,23.34
2023-05-05T13:44:54.756Z,23.21
2023-05-05T13:47:57.293Z,23.35
2023-05-05T13:51:00.197Z,23.40
2023-05-05T13:54:03.107Z,22.76
2023-05-05T13:57:07.942Z,23.18
2023-05-05T14:00:15.023Z,22.43
2023-05-05T14:03:19.708Z,22.86
2023-05-05T14:06:28.034Z,22.85
2023-05-05T14:09:30.952Z,22.86
2023-05-05T14:15:37.618Z,22.59
2023-05-05T14:18:40.166Z,22.53
2023-05-05T14:21:42.984Z,22.45
2023-05-05T14:24:45.633Z,22.40
2023-05-05T14:27:48.510Z,22.39
2023-05-05T14:30:51.053Z,22.31
2023-05-05T14:33:54.218Z,22.17
2023-05-05T14:36:57.246Z,22.39
2023-05-05T14:40:00.234Z,22.27
2023-05-05T14:43:02.772Z,22.15
2023-05-05T14:46:07.173Z,22.32
2023-05-05T14:49:09.960Z,22.27
2023-05-05T14:52:12.735Z,22.23
2023-05-05T14:55:15.373Z,22.09
2023-05-05T14:58:22.399Z,22.13
2023-05-05T15:01:25.918Z,22.17
2023-05-05T15:04:28.970Z,22.05
2023-05-05T15:07:31.921Z,21.94
2023-05-05T15:10:34.827Z,22.06
2023-05-05T15:13:40.257Z,22.06
2023-05-05T15:16:43.360Z,21.92
2023-05-05T15:19:45.904Z,21.98
2023-05-05T15:22:49.675Z,21.93
2023-05-05T15:25:52.257Z,21.84
2023-05-05T15:28:55.089Z,21.63
2023-05-05T15:31:57.638Z,21.53
2023-05-05T15:35:00.821Z,21.57
2023-05-05T15:38:04.281Z,21.71
2023-05-05T15:41:07.418Z,21.73
2023-05-05T15:44:12.161Z,21.65
2023-05-05T15:47:14.998Z,21.56
2023-05-05T15:50:17.720Z,21.39
2023-05-05T15:53:21.299Z,21.39
2023-05-05T15:56:27.336Z,21.28
2023-05-05T15:59:30.144Z,21.24
2023-05-05T16:02:32.792Z,21.23
2023-05-05T16:05:35.689Z,21.16
2023-05-05T16:08:38.816Z,21.07
2023-05-05T16:11:41.686Z,21.13
2023-05-05T16:14:44.179Z,21.25
2023-05-05T16:17:47.028Z,21.17
2023-05-05T16:20:49.520Z,21.19
2023-05-05T16:23:52.906Z,21.08
2023-05-05T16:26:55.410Z,21.08
2023-05-05T16:29:59.695Z,21.27
2023-05-05T16:33:02.467Z,21.17
2023-05-05T16:36:05.449Z,21.03
2023-05-05T16:39:08.155Z,20.98
2023-05-05T16:42:11.019Z,20.73
2023-05-05T16:45:13.726Z,20.76
2023-05-05T16:48:18.388Z,20.65
2023-05-05T16:51:20.989Z,20.54
2023-05-05T16:54:23.728Z,20.31
2023-05-05T16:57:26.453Z,20.33
2023-05-05T17:00:29.327Z,20.20
2023-05-05T17:03:32.053Z,20.12
2023-05-05T17:06:34.890Z,20.04
2023-05-05T17:09:37.651Z,19.92
2023-05-05T17:12:40.966Z,19.83
2023-05-05T17:15:44.390Z,19.70
2023-05-05T17:18:47.260Z,19.58
2023-05-05T17:21:50.229Z,19.48
2023-05-05T17:24:52.958Z,19.35
2023-05-05T17:27:56.227Z,19.25
2023-05-05T17:31:00.007Z,19.14
2023-05-05T17:37:09.072Z,18.94
2023-05-05T17:40:11.749Z,18.80
2023-05-05T17:43:14.626Z,18.67
2023-05-05T17:46:17.283Z,18.56
2023-05-05T17:49:21.609Z,18.42
2023-05-05T17:52:25.088Z,18.35
2023-05-05T17:55:28.479Z,18.24
2023-05-05T17:58:30.974Z,18.09
2023-05-05T18:01:33.931Z,18.06
2023-05-05T18:04:37.434Z,17.90
2023-05-05T18:07:39.969Z,17.79
2023-05-05T18:10:43.377Z,17.67
2023-05-05T18:13:46.233Z,17.56
2023-05-05T18:16:52.502Z,17.55
2023-05-05T18:19:55.122Z,17.45
2023-05-05T18:22:57.919Z,17.36
2023-05-05T18:26:00.556Z,17.13
2023-05-05T18:29:03.525Z,17.12
2023-05-05T18:32:06.588Z,17.10
2023-05-05T18:35:09.909Z,16.96
2023-05-05T18:38:12.631Z,16.81
2023-05-05T18:41:15.740Z,16.71
2023-05-05T18:44:19.328Z,16.58
2023-05-05T18:47:22.125Z,16.53
2023-05-05T18:50:24.657Z,16.54
2023-05-05T18:53:27.584Z,16.51
2023-05-05T18:56:30.754Z,16.38
2023-05-05T18:59:33.756Z,16.29
2023-05-05T19:02:37.058Z,16.41
2023-05-05T19:05:41.538Z,16.33
2023-05-05T19:08:45.928Z,16.32
2023-05-05T19:11:48.794Z,16.04
2023-05-05T19:14:51.507Z,16.09
2023-05-05T19:17:54.767Z,16.10
2023-05-05T19:20:57.326Z,15.97
2023-05-05T19:24:00.166Z,15.86
2023-05-05T19:27:03.012Z,15.81
2023-05-05T19:30:08.054Z,15.74
2023-05-05T19:33:10.585Z,15.67
2023-05-05T19:36:13.463Z,15.62
2023-05-05T19:39:16.016Z,15.55
2023-05-05T19:42:19.037Z,15.48
2023-05-05T19:45:21.740Z,15.43
2023-05-05T19:48:24.584Z,15.52
2023-05-05T19:51:27.282Z,15.36
2023-05-05T19:54:30.101Z,15.31
2023-05-05T19:57:32.872Z,15.30
2023-05-05T20:00:35.758Z,15.21
2023-05-05T20:03:38.726Z,15.14
2023-05-05T20:06:41.516Z,14.99
2023-05-05T20:09:44.639Z,14.93
2023-05-05T20:12:49.159Z,15.05
2023-05-05T20:15:52.159Z,15.03
2023-05-05T20:18:54.694Z,15.06
2023-05-05T20:21:58.050Z,14.95
2023-05-05T20:28:04.364Z,14.76
2023-05-05T20:31:06.872Z,14.70
2023-05-05T20:34:09.607Z,14.73
2023-05-05T20:37:13.745Z,14.68
2023-05-05T20:40:17.039Z,14.63
2023-05-05T20:43:19.746Z,14.61
2023-05-05T20:46:22.586Z,14.52
2023-05-05T20:49:25.134Z,14.54
2023-05-05T20:52:27.939Z,14.44
2023-05-05T20:55:30.626Z,14.48
2023-05-05T20:58:33.870Z,14.45
2023-05-05T21:01:36.589Z,14.37
2023-05-05T21:04:39.378Z,14.42
2023-05-05T21:07:41.813Z,14.53
2023-05-05T21:10:44.776Z,14.58
2023-05-05T21:13:47.848Z,14.60
2023-05-05T21:16:50.818Z,14.70
2023-05-05T21:19:53.948Z,14.68
2023-05-05T21:22:56.911Z,14.73
2023-05-05T21:25:59.474Z,14.65
2023-05-05T21:29:02.284Z,14.74
2023-05-05T21:32:06.795Z,14.63
2023-05-05T21:35:10.415Z,14.55
2023-05-05T21:38:13.006Z,14.54
2023-05-05T21:41:16.786Z,14.61
2023-05-05T21:44:19.587Z,14.58
2023-05-05T21:47:22.489Z,14.66
2023-05-05T21:50:25.519Z,14.43
2023-05-05T21:53:29.475Z,14.42
2023-05-05T21:56:33.554Z,14.45
2023-05-05T21:59:36.626Z,14.51
2023-05-05T22:02:39.206Z,14.49
2023-05-05T22:05:41.972Z,14.35
2023-05-05T22:08:44.447Z,14.20
2023-05-05T22:11:47.434Z,14.40
2023-05-05T22:14:50.123Z,14.48
2023-05-05T22:17:53.026Z,14.51
2023-05-05T22:20:55.637Z,14.46
2023-05-05T22:23:58.787Z,14.48
2023-05-05T22:27:01.899Z,14.51
2023-05-05T22:30:05.073Z,14.44
2023-05-05T22:33:07.970Z,14.47
2023-05-05T22:36:11.529Z,14.41
2023-05-05T22:39:14.405Z,14.43
2023-05-05T22:42:17.234Z,14.33
2023-05-05T22:45:20.057Z,14.24
2023-05-05T22:48:23.029Z,14.17
2023-05-05T22:51:25.571Z,14.13
2023-05-05T22:54:28.313Z,14.05
2023-05-05T22:57:30.875Z,13.65
2023-05-05T23:00:33.802Z,13.37
2023-05-05T23:03:36.784Z,13.05
2023-05-05T23:06:42.390Z,12.84
2023-05-05T23:09:46.841Z,12.71
2023-05-05T23:12:50.112Z,12.56
2023-05-05T23:15:52.633Z,12.48
2023-05-05T23:18:55.515Z,12.35
2023-05-05T23:22:02.181Z,12.20
2023-05-05T23:25:05.557Z,12.12
2023-05-05T23:28:08.056Z,12.07
2023-05-05T23:31:10.881Z,12.01
2023-05-05T23:34:14.549Z,11.94
2023-05-05T23:37:17.396Z,11.91
2023-05-05T23:40:19.957Z,11.91
2023-05-05T23:43:23.112Z,11.81
2023-05-05T23:46:25.661Z,11.75
2023-05-05T23:49:28.610Z,11.79
2023-05-05T23:52:31.077Z,11.72
2023-05-05T23:55:34.388Z,11.65
2023-05-05T23:58:37.287Z,11.63
